BGJN

Ilulissat Airport

Ilulissat, Greenland
METAR BGJN 200650Z AUTO VRB07G19KT 9999NDV NCD M07/M18 Q1006
Observed Flight Rules
Jan-20 @ 06:50 UTC (12 minutes ago)
Wind Clouds
Variable at 7 knots
 Gusting to 19 knots
  • Clear skies
Temperatures Readings
Current -7°C / 19°F
Dewpoint -18°C / -0°F
Humidity 42%
Altimeter 29.7" Hg
Pressure 1006 hPa
Elevation 25
METAR BGJN 200650Z AUTO VRB07G19KT 9999NDV NCD M07/M18 Q1006
Observed Flight Rules
Jan-20 @ 06:50 UTC
(12 minutes ago)
Wind
Variable at 7 knots
 Gusting to 19 knots
Clouds
  • Clear skies
Temperature Dewpoint
-7°C / 19°F -18°C / -0°F
Humidity Altimeter Pressure
42% 29.7" Hg 1006 hPa